Time;durP1;ratioP1;P1;durP2;ratioP2;P2;SDS_P1;SDS_P2;PMS_P1;PMS_P2;Temp;Humidity;BMP_temperature;BMP_pressure;BME280_temperature;BME280_humidity;BME280_pressure;Samples;Min_cycle;Max_cycle;Signal;HPM_P1;HPM_P2
2020/12/19 00:00:16;;;;;;;5.20;3.57;;;12.00;99.90;;;;;;4993148;28;20555;-75
2020/12/19 00:02:42;;;;;;;5.57;3.30;;;11.90;99.90;;;;;;4993910;28;20248;-75
2020/12/19 00:05:09;;;;;;;4.47;3.50;;;11.90;99.90;;;;;;4993113;28;20209;-75
2020/12/19 00:07:35;;;;;;;5.70;3.43;;;11.90;99.90;;;;;;4993497;28;20267;-75
2020/12/19 00:10:04;;;;;;;7.50;3.53;;;11.90;99.90;;;;;;4993434;28;20240;-74
2020/12/19 00:12:31;;;;;;;6.10;3.60;;;11.90;99.90;;;;;;4993547;28;20216;-75
2020/12/19 00:14:57;;;;;;;7.53;3.90;;;11.90;99.90;;;;;;4992996;28;20220;-74
2020/12/19 00:17:24;;;;;;;8.40;3.13;;;12.10;99.90;;;;;;4993235;28;20244;-77
2020/12/19 00:19:50;;;;;;;8.10;3.83;;;12.00;99.90;;;;;;4993812;28;20224;-74
2020/12/19 00:22:20;;;;;;;8.80;4.43;;;12.00;99.90;;;;;;4992639;28;20647;-74
2020/12/19 00:24:47;;;;;;;4.37;3.53;;;12.20;99.90;;;;;;4993548;28;20213;-75
2020/12/19 00:27:15;;;;;;;9.03;3.67;;;12.20;99.90;;;;;;4993171;28;20569;-76
2020/12/19 00:29:41;;;;;;;4.73;3.50;;;12.10;99.90;;;;;;4993136;28;20228;-77
2020/12/19 00:32:08;;;;;;;9.03;3.83;;;12.00;99.90;;;;;;4992694;28;20208;-76
2020/12/19 00:34:35;;;;;;;7.30;4.20;;;12.10;99.90;;;;;;4992787;28;20205;-78
2020/12/19 00:37:01;;;;;;;6.77;3.70;;;12.10;99.90;;;;;;4992686;28;20583;-76
2020/12/19 00:39:28;;;;;;;8.23;3.37;;;12.00;99.90;;;;;;4993003;28;20259;-77
2020/12/19 00:41:54;;;;;;;5.13;3.77;;;12.00;99.90;;;;;;4993349;28;20685;-76
2020/12/19 00:44:21;;;;;;;7.90;4.97;;;11.70;99.90;;;;;;4992727;28;20236;-76
2020/12/19 00:46:49;;;;;;;6.20;4.03;;;11.70;99.90;;;;;;4992687;28;20205;-77
2020/12/19 00:49:15;;;;;;;3.97;3.30;;;12.00;99.90;;;;;;4992587;28;20216;-76
2020/12/19 00:51:42;;;;;;;6.33;3.47;;;12.00;99.90;;;;;;4992607;28;20779;-76
2020/12/19 00:54:08;;;;;;;7.13;4.20;;;12.10;99.90;;;;;;4992708;28;20676;-76
2020/12/19 00:56:35;;;;;;;5.50;4.07;;;11.90;99.90;;;;;;4993027;28;20588;-76
2020/12/19 00:59:01;;;;;;;9.83;4.07;;;11.80;99.90;;;;;;4992457;28;20216;-76
2020/12/19 01:01:29;;;;;;;5.10;4.13;;;11.80;99.90;;;;;;4992441;28;20263;-77
2020/12/19 01:03:57;;;;;;;6.23;3.90;;;11.90;99.90;;;;;;4992289;28;20589;-78
2020/12/19 01:06:24;;;;;;;4.93;3.80;;;11.90;99.90;;;;;;4992823;28;20573;-78
2020/12/19 01:08:52;;;;;;;7.60;3.63;;;12.00;99.90;;;;;;4992495;28;20644;-77
2020/12/19 01:11:20;;;;;;;7.90;3.57;;;11.80;99.90;;;;;;4991957;28;20597;-77
2020/12/19 01:13:47;;;;;;;5.93;3.70;;;11.80;99.90;;;;;;4992338;28;20212;-77
2020/12/19 01:16:15;;;;;;;9.93;3.57;;;11.80;99.90;;;;;;4991974;28;20512;-78
2020/12/19 01:18:43;;;;;;;5.97;3.67;;;11.80;99.90;;;;;;4992382;28;20208;-78
2020/12/19 01:21:13;;;;;;;5.40;4.13;;;11.70;99.90;;;;;;4991555;28;20596;-77
2020/12/19 01:23:40;;;;;;;7.30;3.20;;;11.60;99.90;;;;;;4992261;28;20228;-78
2020/12/19 01:26:07;;;;;;;5.47;3.50;;;11.80;99.90;;;;;;4991446;28;20257;-78
2020/12/19 01:28:34;;;;;;;5.57;3.40;;;11.90;99.90;;;;;;4992250;28;20212;-77
2020/12/19 01:31:02;;;;;;;8.60;3.80;;;11.90;99.90;;;;;;4991398;28;20239;-77
2020/12/19 01:33:29;;;;;;;5.50;4.03;;;11.80;99.90;;;;;;4992504;28;20216;-78
2020/12/19 01:35:56;;;;;;;6.30;3.50;;;12.00;99.90;;;;;;4991882;28;20209;-77
2020/12/19 01:38:23;;;;;;;4.37;3.33;;;12.00;99.90;;;;;;4992457;28;20205;-77
2020/12/19 01:40:50;;;;;;;8.17;4.07;;;11.80;99.90;;;;;;4991954;28;20625;-76
2020/12/19 01:43:16;;;;;;;8.17;3.37;;;11.90;99.90;;;;;;4991223;28;20213;-76
2020/12/19 01:45:43;;;;;;;8.50;3.43;;;11.80;99.90;;;;;;4991891;28;20208;-76
2020/12/19 01:48:19;;;;;;;5.17;3.80;;;11.50;99.90;;;;;;4991759;28;20212;-76
2020/12/19 01:50:47;;;;;;;6.97;4.53;;;11.60;99.90;;;;;;4978475;28;20240;-74
2020/12/19 01:53:15;;;;;;;4.77;3.57;;;11.50;99.90;;;;;;4991574;28;20212;-75
2020/12/19 01:55:43;;;;;;;6.77;4.33;;;11.60;99.90;;;;;;4991494;28;20217;-76
2020/12/19 01:58:10;;;;;;;5.97;4.00;;;11.50;99.90;;;;;;4991420;28;20211;-76
2020/12/19 02:00:38;;;;;;;9.07;4.07;;;11.60;99.90;;;;;;4991024;28;20209;-74
2020/12/19 02:03:04;;;;;;;5.13;3.87;;;11.30;99.90;;;;;;4991556;28;20327;-73
2020/12/19 02:05:33;;;;;;;5.40;3.37;;;11.40;99.90;;;;;;4991205;28;20213;-73
2020/12/19 02:08:00;;;;;;;6.50;4.10;;;11.30;99.90;;;;;;4991010;28;20215;-73
2020/12/19 02:10:27;;;;;;;11.73;5.00;;;11.30;99.90;;;;;;4990935;28;20232;-73
2020/12/19 02:12:54;;;;;;;7.30;4.10;;;11.30;99.90;;;;;;4991925;28;20208;-76
2020/12/19 02:15:20;;;;;;;6.77;5.27;;;11.20;99.90;;;;;;4991271;28;20204;-76
2020/12/19 02:17:47;;;;;;;9.80;4.47;;;11.00;99.90;;;;;;4991278;28;20287;-77
2020/12/19 02:20:13;;;;;;;6.90;4.83;;;11.00;99.90;;;;;;4990823;28;20743;-76
2020/12/19 02:22:40;;;;;;;9.20;4.63;;;10.90;99.90;;;;;;4991051;28;20696;-77
2020/12/19 02:25:08;;;;;;;5.97;3.73;;;10.80;99.90;;;;;;4990750;28;20595;-77
2020/12/19 02:27:34;;;;;;;8.93;4.57;;;10.80;99.90;;;;;;4990916;28;20244;-77
2020/12/19 02:30:00;;;;;;;8.97;4.30;;;10.90;99.90;;;;;;4990757;28;20233;-75
2020/12/19 02:32:27;;;;;;;11.10;5.23;;;10.60;99.90;;;;;;4991404;28;20220;-74
2020/12/19 02:34:54;;;;;;;9.43;5.03;;;10.50;99.90;;;;;;4991011;28;20232;-77
2020/12/19 02:37:20;;;;;;;8.83;5.80;;;10.60;99.90;;;;;;4991226;28;20216;-77
2020/12/19 02:39:47;;;;;;;8.97;5.07;;;10.40;99.90;;;;;;4995880;28;20212;-77
2020/12/19 02:42:14;;;;;;;6.97;4.67;;;10.30;99.90;;;;;;4997521;28;20205;-76
2020/12/19 02:44:40;;;;;;;8.97;5.43;;;10.20;99.90;;;;;;4997213;28;20216;-77
2020/12/19 02:47:07;;;;;;;11.23;4.97;;;10.30;99.90;;;;;;4997134;28;20208;-75
2020/12/19 02:49:33;;;;;;;11.83;4.20;;;10.60;99.90;;;;;;4997601;28;20302;-75
2020/12/19 02:51:59;;;;;;;10.07;4.93;;;10.40;99.90;;;;;;4997073;28;20240;-75
2020/12/19 02:54:26;;;;;;;9.53;4.80;;;10.20;99.90;;;;;;4997272;28;20248;-76
2020/12/19 02:56:52;;;;;;;10.37;5.23;;;9.90;99.90;;;;;;4995994;28;20240;-75
2020/12/19 02:59:19;;;;;;;9.93;5.47;;;9.90;99.90;;;;;;4996526;28;20212;-75
2020/12/19 03:01:46;;;;;;;15.17;6.73;;;10.10;99.90;;;;;;4997704;28;20219;-75
2020/12/19 03:04:14;;;;;;;7.17;5.10;;;9.90;99.90;;;;;;4996876;28;20213;-75
2020/12/19 03:06:41;;;;;;;6.93;5.10;;;9.80;99.90;;;;;;4996954;28;20583;-75
2020/12/19 03:09:07;;;;;;;12.53;5.33;;;9.70;99.90;;;;;;4996999;28;20219;-76
2020/12/19 03:11:34;;;;;;;9.77;6.13;;;9.80;99.90;;;;;;4997026;28;20605;-75
2020/12/19 03:14:00;;;;;;;7.27;5.63;;;9.90;99.90;;;;;;4996492;28;20208;-75
2020/12/19 03:16:27;;;;;;;8.20;6.37;;;10.10;99.90;;;;;;4997340;28;20575;-75
2020/12/19 03:18:54;;;;;;;11.43;6.53;;;10.30;99.90;;;;;;4997259;28;20680;-75
2020/12/19 03:21:20;;;;;;;9.90;5.30;;;10.20;99.90;;;;;;4997032;28;20220;-75
2020/12/19 03:23:47;;;;;;;10.03;5.90;;;10.20;99.90;;;;;;4996888;28;20212;-75
2020/12/19 03:26:14;;;;;;;9.23;4.97;;;10.40;99.90;;;;;;4996920;28;20205;-75
2020/12/19 03:28:41;;;;;;;8.20;5.93;;;10.50;99.90;;;;;;4997263;28;20216;-74
2020/12/19 03:31:07;;;;;;;8.97;5.87;;;10.60;99.90;;;;;;4996465;28;20298;-74
2020/12/19 03:33:35;;;;;;;8.67;5.30;;;10.50;99.90;;;;;;4996989;28;20248;-75
2020/12/19 03:36:01;;;;;;;10.57;5.70;;;10.70;99.90;;;;;;4996291;28;20209;-75
2020/12/19 03:38:27;;;;;;;10.30;5.27;;;10.90;99.90;;;;;;4997414;28;20369;-74
2020/12/19 03:40:54;;;;;;;8.77;5.33;;;10.90;99.90;;;;;;4997013;28;20213;-74
2020/12/19 03:43:20;;;;;;;7.10;5.23;;;11.10;99.90;;;;;;4997167;28;20244;-75
2020/12/19 03:45:47;;;;;;;7.97;5.03;;;10.90;99.90;;;;;;4997099;28;20582;-75
2020/12/19 03:48:13;;;;;;;5.47;4.67;;;11.00;99.90;;;;;;4996369;28;20645;-75
2020/12/19 03:50:41;;;;;;;13.17;5.97;;;11.00;99.90;;;;;;4995145;28;20299;-74
2020/12/19 03:53:07;;;;;;;7.73;4.57;;;11.00;99.90;;;;;;4993226;28;20205;-74
2020/12/19 03:55:33;;;;;;;9.80;5.60;;;10.90;99.90;;;;;;4993954;28;20209;-74
2020/12/19 03:58:00;;;;;;;8.33;4.37;;;10.80;99.90;;;;;;4993188;28;20211;-75
2020/12/19 04:00:26;;;;;;;5.47;4.57;;;10.80;99.90;;;;;;4993961;28;20205;-75
2020/12/19 04:02:53;;;;;;;9.10;5.13;;;10.70;99.90;;;;;;4993756;28;20307;-76
2020/12/19 04:05:19;;;;;;;7.30;4.73;;;10.80;99.90;;;;;;4993224;28;20205;-75
2020/12/19 04:07:46;;;;;;;15.57;6.73;;;10.80;99.90;;;;;;4993865;28;20225;-75
2020/12/19 04:10:13;;;;;;;8.33;4.57;;;10.70;99.90;;;;;;4992664;28;20704;-75
2020/12/19 04:12:39;;;;;;;9.53;5.57;;;10.50;99.90;;;;;;4993720;28;20205;-75
2020/12/19 04:15:08;;;;;;;7.93;5.27;;;10.80;99.90;;;;;;4993021;28;20300;-75
2020/12/19 04:17:34;;;;;;;6.63;4.90;;;10.70;99.90;;;;;;4993580;28;20211;-75
2020/12/19 04:20:01;;;;;;;11.67;4.97;;;10.60;99.90;;;;;;4993102;28;20213;-74
2020/12/19 04:22:27;;;;;;;8.80;6.03;;;10.60;99.90;;;;;;4993513;28;20221;-74
2020/12/19 04:24:55;;;;;;;8.00;5.20;;;10.50;99.90;;;;;;4993389;28;20208;-74
2020/12/19 04:27:21;;;;;;;13.43;5.27;;;10.40;99.90;;;;;;4993265;28;20208;-74
2020/12/19 04:29:47;;;;;;;11.83;5.70;;;10.30;99.90;;;;;;4993249;28;20241;-74
2020/12/19 04:32:14;;;;;;;9.47;4.87;;;10.30;99.90;;;;;;4992499;28;20685;-74
2020/12/19 04:34:40;;;;;;;11.47;5.63;;;10.60;99.90;;;;;;4993402;28;20267;-75
2020/12/19 04:37:07;;;;;;;9.13;5.53;;;10.60;99.90;;;;;;4992734;28;20208;-75
2020/12/19 04:39:33;;;;;;;10.57;5.60;;;10.60;99.90;;;;;;4993130;28;20205;-74
2020/12/19 04:42:01;;;;;;;9.77;5.57;;;10.70;99.90;;;;;;4992653;28;20598;-74
2020/12/19 04:44:27;;;;;;;8.73;5.63;;;10.70;99.90;;;;;;4993378;28;20247;-75
2020/12/19 04:46:54;;;;;;;7.27;4.90;;;10.60;99.90;;;;;;4993089;28;20578;-75
2020/12/19 04:49:22;;;;;;;14.37;6.07;;;10.70;99.90;;;;;;4992825;28;20634;-75
2020/12/19 04:51:49;;;;;;;9.13;6.10;;;10.70;99.90;;;;;;4992918;28;20708;-75
2020/12/19 04:54:16;;;;;;;6.80;5.63;;;10.90;99.90;;;;;;4992236;28;20209;-75
2020/12/19 04:56:43;;;;;;;12.50;5.80;;;10.90;99.90;;;;;;4992886;28;20244;-75
2020/12/19 04:59:11;;;;;;;9.03;5.50;;;10.70;99.90;;;;;;4992020;28;20240;-74
2020/12/19 05:01:37;;;;;;;6.83;4.90;;;10.70;99.90;;;;;;4992488;28;20228;-75
2020/12/19 05:04:03;;;;;;;7.47;5.57;;;10.80;99.90;;;;;;4992127;28;20331;-74
2020/12/19 05:06:30;;;;;;;9.70;6.27;;;10.80;99.90;;;;;;4992601;28;20217;-74
2020/12/19 05:08:57;;;;;;;11.07;6.33;;;10.80;99.90;;;;;;4992096;28;20208;-75
2020/12/19 05:11:25;;;;;;;13.23;7.37;;;10.70;99.90;;;;;;4992500;28;20658;-74
2020/12/19 05:13:52;;;;;;;7.00;5.30;;;10.70;99.90;;;;;;4992263;28;20213;-75
2020/12/19 05:16:19;;;;;;;9.63;5.50;;;10.80;99.90;;;;;;4992340;28;20271;-75
2020/12/19 05:18:46;;;;;;;14.93;5.43;;;10.60;99.90;;;;;;4992281;28;20236;-77
2020/12/19 05:21:14;;;;;;;7.70;5.07;;;10.70;99.90;;;;;;4992207;28;20608;-76
2020/12/19 05:23:42;;;;;;;9.97;5.00;;;10.80;99.90;;;;;;4991988;28;20217;-76
2020/12/19 05:26:10;;;;;;;5.23;4.30;;;10.60;99.90;;;;;;4992061;28;20212;-76
2020/12/19 05:28:39;;;;;;;7.43;4.90;;;10.70;99.90;;;;;;4992187;28;20240;-76
2020/12/19 05:31:06;;;;;;;9.80;5.43;;;10.80;99.90;;;;;;4991991;28;20247;-75
2020/12/19 05:33:35;;;;;;;15.33;9.73;;;10.60;99.90;;;;;;4992255;28;20205;-76
2020/12/19 05:36:02;;;;;;;30.10;24.27;;;10.20;99.90;;;;;;4978359;28;20209;-76
2020/12/19 05:38:29;;;;;;;36.17;29.60;;;9.90;99.90;;;;;;4991778;28;20247;-76
2020/12/19 05:40:57;;;;;;;42.70;34.60;;;9.60;99.90;;;;;;4991968;28;20235;-76
2020/12/19 05:43:23;;;;;;;38.93;34.40;;;9.30;99.90;;;;;;4992562;28;20267;-76
2020/12/19 05:45:49;;;;;;;40.70;35.33;;;9.20;99.90;;;;;;4992058;28;20283;-76
2020/12/19 05:48:16;;;;;;;49.27;40.30;;;9.10;99.90;;;;;;4991647;28;20564;-76
2020/12/19 05:50:43;;;;;;;44.03;37.40;;;9.00;99.90;;;;;;4991728;28;20225;-75
2020/12/19 05:53:10;;;;;;;41.33;34.30;;;8.90;99.90;;;;;;4991227;28;20213;-75
2020/12/19 05:55:37;;;;;;;35.53;27.93;;;8.80;99.90;;;;;;4991529;28;20523;-76
2020/12/19 05:58:07;;;;;;;29.50;24.53;;;8.80;99.90;;;;;;4991235;28;20241;-76
2020/12/19 06:00:34;;;;;;;20.03;16.73;;;8.70;99.90;;;;;;4991618;28;20287;-76
2020/12/19 06:03:03;;;;;;;14.77;13.20;;;8.70;99.90;;;;;;4990999;28;20209;-76
2020/12/19 06:05:31;;;;;;;17.03;11.87;;;8.60;99.90;;;;;;4990876;28;20300;-76
2020/12/19 06:08:00;;;;;;;14.73;11.67;;;8.60;99.90;;;;;;4991059;28;20244;-77
2020/12/19 06:10:27;;;;;;;17.23;11.17;;;8.50;99.90;;;;;;4991096;28;20618;-76
2020/12/19 06:13:02;;;;;;;13.63;9.97;;;8.60;99.90;;;;;;4991737;28;20205;-76
2020/12/19 06:15:45;;;;;;;13.37;9.50;;;8.50;99.90;;;;;;4991096;28;20208;-76
2020/12/19 06:18:26;;;;;;;14.13;9.37;;;8.40;99.90;;;;;;4991154;28;20204;-75
2020/12/19 06:20:54;;;;;;;13.43;8.43;;;8.40;99.90;;;;;;4991414;28;20209;-75
2020/12/19 06:23:23;;;;;;;12.57;8.43;;;8.40;99.90;;;;;;4991174;28;20213;-76
2020/12/19 06:25:49;;;;;;;17.93;9.43;;;8.40;99.90;;;;;;4991657;28;20208;-76
2020/12/19 06:28:47;;;;;;;15.67;9.57;;;8.40;99.90;;;;;;4990757;28;20680;-75
2020/12/19 06:31:16;;;;;;;13.53;8.40;;;8.40;99.90;;;;;;4980031;28;20243;-74
2020/12/19 06:33:46;;;;;;;14.63;9.23;;;8.40;99.90;;;;;;4991289;28;20283;-75
2020/12/19 06:36:24;;;;;;;20.30;10.47;;;8.40;99.90;;;;;;4991024;28;20244;-76
2020/12/19 06:38:53;;;;;;;11.53;8.43;;;8.40;99.90;;;;;;4991483;28;20215;-76
2020/12/19 06:41:40;;;;;;;16.20;8.87;;;8.40;99.90;;;;;;4990985;28;20209;-74
2020/12/19 06:44:07;;;;;;;13.87;10.03;;;8.30;99.90;;;;;;4990448;28;20204;-75
2020/12/19 06:46:34;;;;;;;11.47;10.30;;;8.40;99.90;;;;;;4991229;28;20216;-74
2020/12/19 06:49:00;;;;;;;12.07;10.40;;;8.30;99.90;;;;;;4990458;28;20684;-74
2020/12/19 06:51:26;;;;;;;14.03;9.53;;;8.30;99.90;;;;;;4991011;28;20229;-75
2020/12/19 06:53:57;;;;;;;13.07;10.70;;;8.40;99.90;;;;;;4991307;28;20255;-75
2020/12/19 06:56:27;;;;;;;19.30;10.37;;;8.40;99.90;;;;;;4991444;28;20205;-77
2020/12/19 06:59:01;;;;;;;12.97;9.10;;;8.50;99.90;;;;;;4991545;28;20205;-74
2020/12/19 07:01:28;;;;;;;18.67;9.80;;;8.50;99.90;;;;;;4991061;28;20205;-74
2020/12/19 07:03:55;;;;;;;10.83;9.40;;;8.40;99.90;;;;;;4990597;28;20209;-74
2020/12/19 07:06:21;;;;;;;20.67;9.67;;;8.40;99.90;;;;;;4990833;28;20205;-76
2020/12/19 07:08:48;;;;;;;16.73;10.63;;;8.30;99.90;;;;;;4991300;28;20212;-77
2020/12/19 07:11:39;;;;;;;10.80;8.90;;;8.30;99.90;;;;;;4990747;28;20236;-75
2020/12/19 07:14:15;;;;;;;13.90;10.17;;;8.40;99.90;;;;;;4990583;28;20316;-77
2020/12/19 07:16:46;;;;;;;13.93;10.87;;;8.40;99.90;;;;;;4990790;28;20288;-74
2020/12/19 07:19:21;;;;;;;14.33;9.87;;;8.40;99.90;;;;;;4990353;28;20209;-74
2020/12/19 07:21:48;;;;;;;12.83;9.60;;;8.50;99.90;;;;;;4990598;28;20676;-77
2020/12/19 07:24:15;;;;;;;11.50;10.30;;;8.50;99.90;;;;;;4990201;28;20227;-74
2020/12/19 07:26:42;;;;;;;13.73;11.97;;;8.60;99.90;;;;;;4994659;28;20212;-74
2020/12/19 07:29:17;;;;;;;18.03;13.97;;;8.60;99.90;;;;;;4993807;28;20296;-73
2020/12/19 07:31:49;;;;;;;15.73;11.10;;;8.50;99.90;;;;;;4991065;28;20247;-74
2020/12/19 07:34:16;;;;;;;15.23;11.23;;;8.50;99.90;;;;;;4992920;28;20283;-74
2020/12/19 07:36:45;;;;;;;12.60;10.20;;;8.50;99.90;;;;;;4994080;28;20240;-77
2020/12/19 07:39:13;;;;;;;15.90;11.13;;;8.60;99.90;;;;;;4993718;28;20216;-75
2020/12/19 07:41:40;;;;;;;13.77;10.33;;;8.60;99.90;;;;;;4993759;28;20209;-77
2020/12/19 07:44:09;;;;;;;17.40;11.70;;;8.60;99.90;;;;;;4993622;28;20240;-74
2020/12/19 07:46:36;;;;;;;16.23;12.13;;;8.70;99.90;;;;;;4993800;28;20212;-77
2020/12/19 07:49:02;;;;;;;18.57;12.83;;;8.80;99.90;;;;;;4992839;28;20584;-74
2020/12/19 07:51:29;;;;;;;14.43;11.10;;;8.80;99.90;;;;;;4994163;28;20233;-75
2020/12/19 07:53:56;;;;;;;12.97;11.57;;;8.90;99.90;;;;;;4988118;28;20264;-76
2020/12/19 07:56:22;;;;;;;10.70;9.57;;;9.00;99.90;;;;;;4992688;28;20215;-77
2020/12/19 07:58:49;;;;;;;12.93;9.43;;;9.10;99.90;;;;;;4992255;28;20224;-80
2020/12/19 08:01:17;;;;;;;11.73;9.17;;;9.40;99.90;;;;;;4991419;28;20603;-78
2020/12/19 08:03:58;;;;;;;17.20;11.77;;;9.40;99.90;;;;;;4993355;28;20590;-80
2020/12/19 08:06:39;;;;;;;10.00;9.00;;;9.30;99.90;;;;;;4989735;28;20220;-81
2020/12/19 08:09:05;;;;;;;17.40;8.40;;;9.40;99.90;;;;;;4993708;28;20216;-80
2020/12/19 08:11:32;;;;;;;10.67;9.57;;;9.60;99.90;;;;;;4993913;28;20607;-80
2020/12/19 08:13:59;;;;;;;10.57;8.83;;;9.80;99.90;;;;;;4993633;28;20592;-80
2020/12/19 08:16:26;;;;;;;12.13;10.43;;;10.00;99.90;;;;;;4993829;28;20212;-82
2020/12/19 08:18:53;;;;;;;14.97;12.13;;;10.10;99.90;;;;;;4990833;28;20220;-78
2020/12/19 08:21:19;;;;;;;13.67;10.47;;;10.40;99.90;;;;;;4993167;28;20213;-78
2020/12/19 08:23:46;;;;;;;17.27;13.17;;;10.90;99.90;;;;;;4993261;28;20676;-78
2020/12/19 08:26:17;;;;;;;14.60;8.97;;;10.70;99.90;;;;;;4993284;28;20305;-78
2020/12/19 08:28:44;;;;;;;9.70;8.17;;;10.50;99.90;;;;;;4979378;28;20201;-78
2020/12/19 08:31:18;;;;;;;16.40;8.20;;;10.50;99.90;;;;;;4992791;28;20232;-78
2020/12/19 08:33:49;;;;;;;14.37;8.33;;;10.50;99.90;;;;;;4991625;28;20243;-81
2020/12/19 08:36:16;;;;;;;10.20;7.80;;;10.50;99.90;;;;;;4992780;28;20213;-82
2020/12/19 08:38:43;;;;;;;11.73;7.47;;;10.50;99.90;;;;;;4992675;28;20216;-78
2020/12/19 08:41:19;;;;;;;13.63;7.73;;;10.60;99.90;;;;;;4992748;28;20220;-78
2020/12/19 08:43:45;;;;;;;8.33;6.47;;;10.70;99.90;;;;;;4984657;28;20243;-78
2020/12/19 08:46:13;;;;;;;16.33;7.63;;;10.80;99.90;;;;;;4990140;28;20215;-78
2020/12/19 08:48:40;;;;;;;9.70;7.03;;;10.90;99.90;;;;;;4990848;28;20236;-79
2020/12/19 08:51:14;;;;;;;15.07;7.30;;;10.90;99.90;;;;;;4990648;28;20224;-78
2020/12/19 08:53:40;;;;;;;12.50;7.60;;;11.00;99.90;;;;;;4989004;28;20212;-78
2020/12/19 08:56:14;;;;;;;13.87;9.23;;;11.00;99.90;;;;;;4991450;28;20213;-79
2020/12/19 08:58:41;;;;;;;13.17;7.87;;;11.00;99.90;;;;;;4991348;28;20664;-78
2020/12/19 09:01:15;;;;;;;14.73;8.33;;;11.10;99.90;;;;;;4990942;28;20212;-78
2020/12/19 09:03:42;;;;;;;16.97;6.73;;;11.20;99.90;;;;;;4991693;28;20236;-79
2020/12/19 09:06:11;;;;;;;12.93;8.23;;;11.40;99.90;;;;;;4988991;28;20212;-78
2020/12/19 09:08:39;;;;;;;11.83;7.07;;;11.50;99.90;;;;;;4989808;28;20208;-79
2020/12/19 09:11:07;;;;;;;14.40;7.23;;;11.80;99.90;;;;;;4987744;28;20241;-79
2020/12/19 09:13:36;;;;;;;11.63;6.63;;;11.90;99.90;;;;;;4988261;28;20216;-79
2020/12/19 09:16:08;;;;;;;10.03;5.83;;;12.10;99.90;;;;;;4991451;28;20693;-82
2020/12/19 09:18:36;;;;;;;11.80;6.60;;;12.30;99.90;;;;;;4992063;28;20212;-84
2020/12/19 09:21:05;;;;;;;12.17;6.50;;;12.30;99.90;;;;;;4992266;28;20209;-85
2020/12/19 09:23:32;;;;;;;14.73;6.27;;;12.40;99.90;;;;;;4992328;28;20633;-79
2020/12/19 09:26:01;;;;;;;9.90;6.13;;;12.50;99.90;;;;;;4991858;28;20696;-78
2020/12/19 09:28:28;;;;;;;10.47;5.83;;;12.60;99.90;;;;;;4992519;28;20212;-80
2020/12/19 09:30:55;;;;;;;9.40;5.77;;;12.70;99.90;;;;;;4984850;28;20228;-77
2020/12/19 09:33:22;;;;;;;7.13;6.00;;;12.70;99.90;;;;;;4983554;28;20696;-78
2020/12/19 09:35:50;;;;;;;11.93;8.33;;;12.70;99.90;;;;;;4990344;28;20229;-78
2020/12/19 09:38:17;;;;;;;9.48;6.97;;;12.70;99.90;;;;;;4983122;28;20232;-78
2020/12/19 09:40:44;;;;;;;10.88;8.07;;;12.50;99.90;;;;;;4982474;28;20633;-80
2020/12/19 09:43:11;;;;;;;15.23;8.57;;;12.20;99.90;;;;;;4990550;28;20208;-78
2020/12/19 09:45:38;;;;;;;11.00;8.30;;;12.10;99.90;;;;;;4990355;28;20212;-78
2020/12/19 09:48:05;;;;;;;13.77;9.23;;;12.10;99.90;;;;;;4989295;28;20255;-78
2020/12/19 09:50:32;;;;;;;14.43;9.18;;;12.10;99.90;;;;;;4991188;28;20590;-78
2020/12/19 09:52:59;;;;;;;15.17;10.20;;;12.00;99.90;;;;;;4990730;28;20215;-78
2020/12/19 09:55:27;;;;;;;10.80;9.30;;;11.80;99.90;;;;;;4991554;28;20588;-78
2020/12/19 09:57:54;;;;;;;12.43;9.50;;;11.70;99.90;;;;;;4991468;28;20686;-78
2020/12/19 10:00:21;;;;;;;13.77;9.87;;;11.60;99.90;;;;;;4991534;28;20212;-78
2020/12/19 10:02:49;;;;;;;12.23;10.33;;;11.40;99.90;;;;;;4991345;28;20255;-79
2020/12/19 10:05:17;;;;;;;11.03;9.20;;;11.30;99.90;;;;;;4991139;28;20661;-78
2020/12/19 10:07:43;;;;;;;13.77;9.87;;;11.40;99.90;;;;;;4991535;28;20212;-78
2020/12/19 10:10:10;;;;;;;11.93;9.53;;;11.30;99.90;;;;;;4991017;28;20225;-77
2020/12/19 10:12:37;;;;;;;11.33;9.73;;;11.30;99.90;;;;;;4991279;28;20236;-78
2020/12/19 10:15:05;;;;;;;11.93;10.23;;;11.40;99.90;;;;;;4990851;28;20680;-78
2020/12/19 10:17:32;;;;;;;15.30;9.17;;;11.50;99.90;;;;;;4991410;28;20212;-78
2020/12/19 10:19:58;;;;;;;15.97;10.27;;;11.60;99.90;;;;;;4991208;28;20334;-78
2020/12/19 10:22:25;;;;;;;9.90;8.47;;;11.70;99.90;;;;;;4977873;28;20617;-78
2020/12/19 10:24:51;;;;;;;10.30;9.07;;;11.70;99.90;;;;;;4991906;28;20212;-78
2020/12/19 10:27:18;;;;;;;12.60;8.30;;;11.70;99.90;;;;;;4990760;28;20208;-79
2020/12/19 10:29:44;;;;;;;11.32;8.95;;;11.70;99.90;;;;;;4991606;28;20578;-78
2020/12/19 10:32:13;;;;;;;15.20;11.03;;;11.80;99.90;;;;;;4990549;28;20276;-78
2020/12/19 10:34:39;;;;;;;12.13;8.17;;;11.80;99.90;;;;;;4991039;28;20212;-78
2020/12/19 10:37:06;;;;;;;8.00;7.20;;;11.90;99.90;;;;;;4990209;28;20208;-77
2020/12/19 10:39:32;;;;;;;9.93;8.97;;;12.10;99.90;;;;;;4991093;28;20216;-78
2020/12/19 10:41:59;;;;;;;11.80;7.80;;;12.30;99.90;;;;;;4990900;28;20213;-78
2020/12/19 10:44:26;;;;;;;11.85;9.50;;;12.70;99.90;;;;;;4990901;28;20680;-78
2020/12/19 10:46:53;;;;;;;12.07;9.20;;;12.80;99.90;;;;;;4991634;28;20208;-78
2020/12/19 10:49:20;;;;;;;17.17;10.35;;;12.80;99.90;;;;;;4990444;28;20688;-78
2020/12/19 10:51:47;;;;;;;14.82;10.05;;;12.70;99.90;;;;;;4991452;28;20237;-78
2020/12/19 10:54:14;;;;;;;9.98;8.98;;;12.70;99.90;;;;;;4990966;28;20686;-78
2020/12/19 10:56:40;;;;;;;12.17;8.40;;;12.90;99.90;;;;;;4990887;28;20223;-78
2020/12/19 10:59:06;;;;;;;14.40;8.87;;;12.90;99.90;;;;;;4990782;28;20205;-77
2020/12/19 11:01:33;;;;;;;15.88;9.80;;;13.10;99.90;;;;;;4994872;28;20739;-78
2020/12/19 11:03:59;;;;;;;17.20;11.07;;;13.20;99.90;;;;;;4994159;28;20255;-78
2020/12/19 11:06:27;;;;;;;16.10;13.00;;;13.20;99.90;;;;;;4994939;28;20241;-77
2020/12/19 11:08:55;;;;;;;16.52;12.93;;;13.30;99.90;;;;;;4995160;28;20209;-78
2020/12/19 11:11:22;;;;;;;15.82;10.75;;;13.30;99.90;;;;;;4991313;28;20229;-78
2020/12/19 11:13:49;;;;;;;13.27;10.77;;;13.70;99.90;;;;;;4989598;28;20216;-79
2020/12/19 11:16:23;;;;;;;11.32;10.20;;;13.70;99.90;;;;;;4990767;28;20218;-78
2020/12/19 11:18:50;;;;;;;15.75;10.25;;;13.60;99.90;;;;;;4993387;28;20703;-78
2020/12/19 11:21:16;;;;;;;12.80;10.68;;;13.70;99.90;;;;;;4994051;28;20216;-78
2020/12/19 11:23:44;;;;;;;14.88;12.25;;;13.80;99.90;;;;;;4994163;28;20299;-78
2020/12/19 11:26:10;;;;;;;16.85;12.52;;;13.90;99.90;;;;;;4994064;28;20204;-78
2020/12/19 11:28:38;;;;;;;20.88;12.93;;;13.90;99.90;;;;;;4994175;28;20228;-78
2020/12/19 11:31:05;;;;;;;20.48;12.07;;;13.90;99.90;;;;;;4982447;28;20611;-78
2020/12/19 11:33:32;;;;;;;19.27;13.07;;;13.90;99.90;;;;;;4983242;28;20241;-78
2020/12/19 11:35:59;;;;;;;18.90;14.13;;;13.90;99.90;;;;;;4988897;28;20369;-78
2020/12/19 11:38:26;;;;;;;15.60;13.00;;;13.90;99.90;;;;;;4992087;28;20220;-78
2020/12/19 11:40:53;;;;;;;22.48;13.70;;;14.00;99.90;;;;;;4990774;28;20267;-78
2020/12/19 11:43:20;;;;;;;19.35;13.88;;;14.10;99.90;;;;;;4991041;28;20209;-78
2020/12/19 11:45:46;;;;;;;17.02;15.32;;;14.70;99.90;;;;;;4992971;28;20213;-78
2020/12/19 11:48:13;;;;;;;18.80;15.55;;;14.80;99.90;;;;;;4992970;28;20296;-76
2020/12/19 11:50:39;;;;;;;16.75;15.00;;;15.10;99.90;;;;;;4985033;28;20708;-75
2020/12/19 11:53:06;;;;;;;18.02;16.13;;;14.70;99.90;;;;;;4992658;28;20665;-75
2020/12/19 11:55:32;;;;;;;21.73;15.05;;;14.60;99.90;;;;;;4985923;28;20597;-75
2020/12/19 11:57:59;;;;;;;30.95;16.70;;;14.40;99.90;;;;;;4993081;28;20215;-75
2020/12/19 12:00:26;;;;;;;16.77;13.65;;;14.60;99.90;;;;;;4994220;28;20205;-75
2020/12/19 12:02:52;;;;;;;18.50;13.95;;;15.10;99.90;;;;;;4993089;28;20221;-76
2020/12/19 12:05:19;;;;;;;12.68;9.45;;;15.70;99.90;;;;;;4991385;28;20216;-76
2020/12/19 12:07:45;;;;;;;14.27;6.43;;;15.30;99.90;;;;;;4994009;28;20216;-76
2020/12/19 12:10:12;;;;;;;7.97;4.47;;;15.20;99.90;;;;;;4993073;28;20216;-75
2020/12/19 12:12:38;;;;;;;11.13;5.15;;;15.10;99.90;;;;;;4992546;28;20282;-74
2020/12/19 12:15:05;;;;;;;10.98;5.13;;;15.40;99.90;;;;;;4993276;28;20264;-76
2020/12/19 12:17:32;;;;;;;16.95;9.35;;;15.50;99.90;;;;;;4993710;28;20749;-75
2020/12/19 12:19:58;;;;;;;11.73;10.07;;;15.40;99.90;;;;;;4993275;28;20239;-76
2020/12/19 12:22:25;;;;;;;18.67;12.68;;;15.30;99.90;;;;;;4993263;28;20212;-75
2020/12/19 12:24:51;;;;;;;18.23;13.18;;;15.10;99.90;;;;;;4993199;28;20244;-75
2020/12/19 12:27:18;;;;;;;18.23;12.00;;;14.90;99.90;;;;;;4992975;28;20205;-76
2020/12/19 12:29:44;;;;;;;17.33;12.35;;;14.80;99.90;;;;;;4985845;28;20256;-77
2020/12/19 12:32:11;;;;;;;17.98;12.70;;;14.60;99.90;;;;;;4985572;28;20240;-77
2020/12/19 12:34:38;;;;;;;15.93;12.18;;;14.50;99.90;;;;;;4993196;28;20209;-76
2020/12/19 12:37:04;;;;;;;16.00;13.05;;;14.50;99.90;;;;;;4995760;28;20241;-77
2020/12/19 12:39:31;;;;;;;13.80;12.45;;;14.30;99.90;;;;;;4993323;28;20237;-76
2020/12/19 12:41:57;;;;;;;18.55;11.63;;;14.30;99.90;;;;;;4987165;28;20259;-76